Andersonville, Virginia
Current Conditions -  °F | °C
As of 11:55 PM on Saturday 22 Nov 2014 (Local Time) from KFVX Reporting Station
Clear Clear  
Wind Chill: 27°   Ceiling: Unl
Heat Index: 32°   Visibility: 10mi
Dew Point: 20°   Wind: 5mph
Humidity: 61%   Direction: 180°S
Pressure: 30.29"   Gusts: NA
Location:  37.47°N, 78.57°W
Report Text: KFVX 230455Z AUTO 18004KT 10SM CLR 00/M07 A3029 RMK AO2 T00001068 401151094
Loading
Personal Weather Stations






























Interactive Weather Map New forecast layout! Learn more

10-Day Weather Forecast

Advertisements
Track Severe Weather on mobile